HEYO2: Heyburn Lake

Data processed at Sat Aug 18 2018 23:15


All information presented herein is the property of the government of the United States of America and may be revised or deleted at any time without prior notice.
Dissemination of this information without the expressed written consent of the Public Affairs Office, Tulsa District U.S. Army Corps of Engineers is strictly prohibited.
These data are gathered electronically and, as presented, have not undergone any form of quality control. These data are not guaranteed to be valid or correct.
Go to home page.
Go to station list.

Downstream station:


Previous Day
Next Day
Current Day
    
SHEF ID:       HEYO2     Heyburn Lake
STATION TYPE:  RESERVOIR
Normal Pool:  Bottom =   755.50, Top =   761.50

               PRECIP  RIV-FLOW ELEVATION   STORAGE    INFLOW   RELEASE  AIR-TEMP  WIND-DIRWIND-SPEED REL-HUMID SOLAR-RAD   VOLTAGE  BAT-LOAD
                   in       cfs        ft     ac-ft       cfs       cfs         F       deg       mph         %      W/m2      volt      volt
              Ccp-Rev  Regi-Rev   Ccp-Rev   Ccp-Rev  Regi-Rev  Regi-Rev   Ccp-Rev   Ccp-Rev   Ccp-Rev   Ccp-Rev   Ccp-Rev   Ccp-Rev   Ccp-Rev
(US/Central)
08/18 00:00      0.02      ----    762.63      6389         1       170     78.24    299.80      2.20     82.35      0.00     12.83     12.65
08/18 01:00      0.01      ----    762.61      6372         1       167     77.27      1.30      1.50     86.27      0.00     12.82     12.65
08/18 02:00      0.01      ----    762.60      6364         1       162     76.10    359.90      1.90     88.91      0.00     12.81     12.65
08/18 03:00      0.01      ----    762.58      6347         1       159     75.09     29.60      1.70     92.51      0.00     12.80     12.65
08/18 04:00      0.02      ----    762.57      6338         1       155     74.01    353.80      1.40     93.14      0.00     12.79     12.57
08/18 05:00      0.01      ----    762.55      6321         0       151     73.06      8.10      1.10     95.60      0.00     12.78     12.57
08/18 06:00      0.01      ----    762.53      6304         0       147     72.84      0.00      2.50     95.59      0.00     12.76     12.57
08/18 07:00      0.01      ----    762.52      6296         0       143     71.85      0.10      3.60     94.66      0.00     12.75     12.57
08/18 08:00      0.01      ----    762.51      6287         0       141     71.46    359.90      3.10     96.53     44.20     13.20     12.57
08/18 09:00      0.01      ----    762.50      6279         0       138     74.19      1.20      2.80     92.24    234.40     13.47     12.97
08/18 10:00      0.01      ----    762.48      6262         0       135     78.64     35.50      2.30     79.75    424.30     13.48     13.44
08/18 11:00      0.00      ----    762.47      6254         0       131     81.39    134.40      5.10     64.19    597.90     13.47     13.68
08/18 12:00      0.01      ----    762.45      6237         0       128     82.74    118.60      4.60     58.86    747.20     13.44     13.37
08/18 13:00      0.01      ----    762.44      6228         0       125     84.49     95.20      2.80     55.05    807.50     13.77     13.84
08/18 14:00      0.00      ----    762.43      6220         0       123     85.10     20.40      4.20     53.61    815.60     13.51     13.84
08/18 15:00      0.01      ----    762.41      6203         0       119     86.31     30.60      3.90     52.32    567.20     14.13     13.44
08/18 16:00      0.00      ----    762.41      6203         0       117     88.11     51.00      2.20     49.94    671.30     13.99     13.29
08/18 17:00      0.01      ----    762.39      6186         0       115     89.58    355.60      1.40     46.66    579.80     13.64     13.37
08/18 18:00      0.01      ----    762.38      6177         0       112     89.37     13.20      1.00     46.65    411.20     13.33     13.21
08/18 19:00      0.01      ----    762.37      6169         0       110     88.74    359.20      1.10     49.32    176.40     13.05     13.05
08/18 20:00      0.00      ----    762.36      6160         0       108     83.25    321.80      2.00     72.28     23.80     12.89     12.81
08/18 21:00      0.01      ----    762.35      6152         0       106     82.06    234.90      2.90     69.74      0.00     12.86     12.65
08/18 22:00      0.00      ----    762.33      6135         0       103     79.86    338.70      1.30     79.41      0.00     12.85     12.65
08/18 23:00      0.01      ----    762.32      6126      ----      -901     77.65    325.70      0.90     87.42      0.00     12.84     12.65